Terminal Aerodrome Forecast
Issued by NWS

Home | Current Version | Previous Version | Text Only | Print | Product List | Glossary On
Versions: 1 2 3 4 5 6 7 8 9 10 11 12 13 14 15 16 17 18 19 20
000
FTUS42 KGSP 232300
TAFGMU
TAF
KGMU 232322Z 2400/2424 VRB06KT P6SM VCTS BKN050CB
     FM240200 23005KT P6SM BKN060
     FM241400 24007KT P6SM VCSH BKN050
     FM241700 25008KT P6SM -SHRA VCTS BKN045CB PROB30 2418/2422 4SM
      TSRA BKN035CB=

USA.gov is the U.S. government's official web portal to all federal, state and local government web resources and services.